createdAt,value
2018-09-25T00:05:23.917Z,89.19
2018-09-25T00:07:59.233Z,88.14
2018-09-25T00:10:33.993Z,87.85
2018-09-25T00:13:08.636Z,88.41
2018-09-25T00:15:43.489Z,88.44
2018-09-25T00:18:18.270Z,88.89
2018-09-25T00:20:55.241Z,89.76
2018-09-25T00:23:29.885Z,90.22
2018-09-25T00:26:04.742Z,90.14
2018-09-25T00:28:41.245Z,89.97
2018-09-25T00:31:15.999Z,89.96
2018-09-25T00:33:51.455Z,89.13
2018-09-25T00:36:26.247Z,88.91
2018-09-25T00:39:07.728Z,89.12
2018-09-25T00:41:42.407Z,89.86
2018-09-25T00:44:18.549Z,90.42
2018-09-25T00:46:53.464Z,90.63
2018-09-25T00:49:28.170Z,90.85
2018-09-25T00:54:50.856Z,89.87
2018-09-25T00:57:25.491Z,89.76
2018-09-25T01:00:00.263Z,89.83
2018-09-25T01:02:35.083Z,90.05
2018-09-25T01:05:09.776Z,90.36
2018-09-25T01:07:54.461Z,90.76
2018-09-25T01:10:29.310Z,91.11
2018-09-25T01:13:16.309Z,91.41
2018-09-25T01:15:51.294Z,90.62
2018-09-25T01:18:26.116Z,90.60
2018-09-25T01:21:00.795Z,90.94
2018-09-25T01:23:35.462Z,90.77
2018-09-25T01:29:08.686Z,92.04
2018-09-25T01:31:43.974Z,91.81
2018-09-25T01:34:18.796Z,91.76
2018-09-25T01:36:53.466Z,91.59
2018-09-25T01:39:30.630Z,91.64
2018-09-25T01:42:05.589Z,91.40
2018-09-25T01:44:40.295Z,91.63
2018-09-25T01:47:15.000Z,91.82
2018-09-25T01:49:49.703Z,91.81
2018-09-25T01:52:24.425Z,91.63
2018-09-25T01:54:59.118Z,91.83
2018-09-25T01:57:33.984Z,92.21
2018-09-25T02:00:08.786Z,92.44
2018-09-25T02:02:43.363Z,92.73
2018-09-25T02:05:18.308Z,92.68
2018-09-25T02:10:32.849Z,92.17
2018-09-25T02:13:08.018Z,92.37
2018-09-25T02:15:42.627Z,92.29
2018-09-25T02:18:18.755Z,92.36
2018-09-25T02:20:53.518Z,92.57
2018-09-25T02:23:28.267Z,92.47
2018-09-25T02:26:51.302Z,92.10
2018-09-25T02:29:26.060Z,92.17
2018-09-25T02:34:42.770Z,92.58
2018-09-25T02:37:17.565Z,92.38
2018-09-25T02:39:52.316Z,93.12
2018-09-25T02:42:27.125Z,92.35
2018-09-25T02:47:42.728Z,92.60
2018-09-25T02:50:17.473Z,92.61
2018-09-25T02:55:32.865Z,92.83
2018-09-25T02:58:07.575Z,92.70
2018-09-25T03:00:42.218Z,92.71
2018-09-25T03:03:16.907Z,92.48
2018-09-25T03:06:22.230Z,92.27
2018-09-25T03:08:56.908Z,92.95
2018-09-25T03:14:49.105Z,92.61
2018-09-25T03:17:25.526Z,92.94
2018-09-25T03:20:00.267Z,92.57
2018-09-25T03:22:35.039Z,92.91
2018-09-25T03:25:09.936Z,92.93
2018-09-25T03:27:44.668Z,93.14
2018-09-25T03:30:19.292Z,93.17
2018-09-25T03:32:53.902Z,93.60
2018-09-25T03:35:28.674Z,93.01
2018-09-25T03:38:03.315Z,92.96
2018-09-25T03:40:37.995Z,93.14
2018-09-25T03:43:12.843Z,93.25
2018-09-25T03:45:49.784Z,93.16
2018-09-25T03:48:25.030Z,93.60
2018-09-25T03:50:59.880Z,93.38
2018-09-25T03:53:34.643Z,93.45
2018-09-25T03:56:12.041Z,92.99
2018-09-25T03:58:46.972Z,93.15
2018-09-25T04:01:21.690Z,93.34
2018-09-25T04:03:56.631Z,94.00
2018-09-25T04:06:31.945Z,94.27
2018-09-25T04:09:06.705Z,94.00
2018-09-25T04:11:41.491Z,93.48
2018-09-25T04:14:16.497Z,93.63
2018-09-25T04:16:51.288Z,94.15
2018-09-25T04:19:27.027Z,94.26
2018-09-25T04:22:01.890Z,94.75
2018-09-25T04:24:37.118Z,95.10
2018-09-25T04:27:12.479Z,95.49
2018-09-25T04:29:47.340Z,95.28
2018-09-25T04:35:03.103Z,94.78
2018-09-25T04:37:37.879Z,95.07
2018-09-25T04:40:13.153Z,95.29
2018-09-25T04:42:47.907Z,94.81
2018-09-25T04:45:25.170Z,94.61
2018-09-25T04:48:00.442Z,94.27
2018-09-25T04:50:35.476Z,93.92
2018-09-25T04:53:10.517Z,93.80
2018-09-25T04:55:45.418Z,93.58
2018-09-25T04:58:21.837Z,93.75
2018-09-25T05:00:56.535Z,94.00
2018-09-25T05:03:31.198Z,94.88
2018-09-25T05:06:06.208Z,94.25
2018-09-25T05:11:21.013Z,93.78
2018-09-25T05:13:55.708Z,93.67
2018-09-25T05:16:30.694Z,93.51
2018-09-25T05:19:07.924Z,93.72
2018-09-25T05:21:42.651Z,93.29
2018-09-25T05:24:18.711Z,93.53
2018-09-25T05:26:53.516Z,93.90
2018-09-25T05:29:28.779Z,93.34
2018-09-25T05:32:03.470Z,93.04
2018-09-25T05:34:38.148Z,92.80
2018-09-25T05:37:13.421Z,92.76
2018-09-25T05:39:48.120Z,92.72
2018-09-25T05:42:22.875Z,92.94
2018-09-25T05:44:57.718Z,92.61
2018-09-25T05:47:32.901Z,92.73
2018-09-25T05:50:07.678Z,92.63
2018-09-25T05:52:43.068Z,92.90
2018-09-25T05:55:19.687Z,92.77
2018-09-25T05:57:54.590Z,92.66
2018-09-25T06:00:30.060Z,92.82
2018-09-25T06:03:05.022Z,92.70
2018-09-25T06:05:39.787Z,92.62
2018-09-25T06:08:14.753Z,92.31
2018-09-25T06:10:49.996Z,92.46
2018-09-25T06:13:24.986Z,92.84
2018-09-25T06:16:04.275Z,93.21
2018-09-25T06:18:39.156Z,93.28
2018-09-25T06:21:13.924Z,93.82
2018-09-25T06:26:29.294Z,92.78
2018-09-25T06:29:03.941Z,92.23
2018-09-25T06:31:39.156Z,92.22
2018-09-25T06:34:14.729Z,92.14
2018-09-25T06:37:18.508Z,92.25
2018-09-25T06:39:53.573Z,92.11
2018-09-25T06:42:28.717Z,92.56
2018-09-25T06:45:03.465Z,92.85
2018-09-25T06:47:46.359Z,93.25
2018-09-25T06:50:20.995Z,93.48
2018-09-25T06:53:00.071Z,93.96
2018-09-25T06:55:34.897Z,94.08
2018-09-25T06:58:11.007Z,94.32
2018-09-25T07:00:45.801Z,94.39
2018-09-25T07:03:20.609Z,94.58
2018-09-25T07:05:55.359Z,94.16
2018-09-25T07:08:30.148Z,94.40
2018-09-25T07:11:05.000Z,94.36
2018-09-25T07:13:39.664Z,93.80
2018-09-25T07:16:15.064Z,93.63
2018-09-25T07:18:50.319Z,91.64
2018-09-25T07:21:25.385Z,83.43
2018-09-25T07:24:00.259Z,75.81
2018-09-25T07:26:35.351Z,69.45
2018-09-25T07:29:12.810Z,64.15
2018-09-25T07:31:47.763Z,60.61
2018-09-25T07:34:22.976Z,59.70
2018-09-25T07:36:57.649Z,57.62
2018-09-25T07:39:32.851Z,55.94
2018-09-25T07:42:07.896Z,53.67
2018-09-25T07:44:42.730Z,51.11
2018-09-25T07:47:17.648Z,49.78
2018-09-25T07:49:52.451Z,49.39
2018-09-25T07:52:29.735Z,48.84
2018-09-25T07:55:04.837Z,47.76
2018-09-25T07:57:39.560Z,47.46
2018-09-25T08:00:16.942Z,45.18
2018-09-25T08:02:51.697Z,43.45
2018-09-25T08:08:14.225Z,43.10
2018-09-25T08:10:49.214Z,42.41
2018-09-25T08:13:25.332Z,41.22
2018-09-25T08:16:00.118Z,40.54
2018-09-25T08:18:35.187Z,38.23
2018-09-25T08:21:10.205Z,38.63
2018-09-25T08:23:44.869Z,36.45
2018-09-25T08:26:19.491Z,37.78
2018-09-25T08:28:54.961Z,34.98
2018-09-25T08:31:35.799Z,35.15
2018-09-25T08:34:11.025Z,35.43
2018-09-25T08:36:45.755Z,35.52
2018-09-25T08:39:22.931Z,35.38
2018-09-25T08:41:57.844Z,34.66
2018-09-25T08:44:33.087Z,34.24
2018-09-25T08:47:08.676Z,34.83
2018-09-25T08:49:43.788Z,32.33
2018-09-25T08:52:18.555Z,34.19
2018-09-25T08:54:53.813Z,33.52
2018-09-25T08:57:28.656Z,32.76
2018-09-25T09:00:03.452Z,31.32
2018-09-25T09:02:38.077Z,29.98
2018-09-25T09:05:12.827Z,29.59
2018-09-25T09:07:47.733Z,29.97
2018-09-25T09:10:23.861Z,30.01
2018-09-25T09:12:58.460Z,29.33
2018-09-25T09:15:33.998Z,30.27
2018-09-25T09:18:08.692Z,28.16
2018-09-25T09:20:43.508Z,29.45
2018-09-25T09:23:18.501Z,28.93
2018-09-25T09:25:54.578Z,28.88
2018-09-25T09:28:29.249Z,29.49
2018-09-25T09:31:07.413Z,29.46
2018-09-25T09:33:42.201Z,29.54
2018-09-25T09:36:16.854Z,32.92
2018-09-25T09:38:53.312Z,34.19
2018-09-25T09:41:28.892Z,34.64
2018-09-25T09:44:03.569Z,35.48
2018-09-25T09:46:38.483Z,36.05
2018-09-25T09:49:13.011Z,37.08
2018-09-25T09:51:49.143Z,40.73
2018-09-25T09:54:24.127Z,40.31
2018-09-25T09:56:58.846Z,40.29
2018-09-25T09:59:34.276Z,41.09
2018-09-25T10:02:08.931Z,42.56
2018-09-25T10:04:43.608Z,40.31
2018-09-25T10:07:18.459Z,36.23
2018-09-25T10:09:53.124Z,36.49
2018-09-25T10:12:28.166Z,37.39
2018-09-25T10:15:03.080Z,37.03
2018-09-25T10:17:38.358Z,36.25
2018-09-25T10:20:13.563Z,36.54
2018-09-25T10:22:48.402Z,39.04
2018-09-25T10:25:23.351Z,38.01
2018-09-25T10:27:59.616Z,37.54
2018-09-25T10:30:34.327Z,39.62
2018-09-25T10:33:10.602Z,39.62
2018-09-25T10:35:45.371Z,39.92
2018-09-25T10:38:20.491Z,40.59
2018-09-25T10:40:55.482Z,42.10
2018-09-25T10:46:11.974Z,40.02
2018-09-25T10:48:46.616Z,40.42
2018-09-25T10:51:21.377Z,41.25
2018-09-25T10:53:56.509Z,39.82
2018-09-25T10:56:31.652Z,40.35
2018-09-25T10:59:10.494Z,39.70
2018-09-25T11:01:45.344Z,41.49
2018-09-25T11:04:20.036Z,41.87
2018-09-25T11:06:54.700Z,41.68
2018-09-25T11:09:29.439Z,41.10
2018-09-25T11:12:04.258Z,39.61
2018-09-25T11:14:39.067Z,39.17
2018-09-25T11:17:14.793Z,38.95
2018-09-25T11:19:49.556Z,38.87
2018-09-25T11:22:24.588Z,39.98
2018-09-25T11:24:59.280Z,38.40
2018-09-25T11:27:34.014Z,39.60
2018-09-25T11:30:10.909Z,39.54
2018-09-25T11:32:45.711Z,37.30
2018-09-25T11:35:20.981Z,36.46
2018-09-25T11:37:55.621Z,35.91
2018-09-25T11:40:30.264Z,35.36
2018-09-25T11:43:04.917Z,35.44
2018-09-25T11:45:39.458Z,35.54
2018-09-25T11:50:53.750Z,35.80
2018-09-25T11:53:28.514Z,35.56
2018-09-25T11:56:04.538Z,36.88
2018-09-25T11:58:39.744Z,35.77
2018-09-25T12:01:14.421Z,35.91
2018-09-25T12:03:48.989Z,36.34
2018-09-25T12:06:23.467Z,35.85
2018-09-25T12:08:58.129Z,35.87
2018-09-25T12:11:32.812Z,36.37
2018-09-25T12:14:07.420Z,36.23
2018-09-25T12:16:43.432Z,36.89
2018-09-25T12:19:18.116Z,36.15
2018-09-25T12:21:52.708Z,36.04
2018-09-25T12:24:27.450Z,36.61
2018-09-25T12:27:01.980Z,35.20
2018-09-25T12:29:36.551Z,34.69
2018-09-25T12:32:11.366Z,35.03
2018-09-25T12:34:46.016Z,34.25
2018-09-25T12:37:20.654Z,34.96
2018-09-25T12:39:55.996Z,33.74
2018-09-25T12:42:30.775Z,34.06
2018-09-25T12:45:05.531Z,33.23
2018-09-25T12:47:41.621Z,33.31
2018-09-25T12:50:16.180Z,33.70
2018-09-25T12:52:50.889Z,34.29
2018-09-25T12:55:25.636Z,33.51
2018-09-25T12:58:01.415Z,33.00
2018-09-25T13:00:36.079Z,31.15
2018-09-25T13:03:10.882Z,30.79
2018-09-25T13:05:46.539Z,30.35
2018-09-25T13:08:21.228Z,31.81
2018-09-25T13:10:56.099Z,31.24
2018-09-25T13:13:30.720Z,27.50
2018-09-25T13:16:07.047Z,26.05
2018-09-25T13:18:41.819Z,26.55
2018-09-25T13:21:16.652Z,26.25
2018-09-25T13:23:51.853Z,24.89
2018-09-25T13:26:26.336Z,25.55
2018-09-25T13:29:01.118Z,25.60
2018-09-25T13:31:35.736Z,26.20
2018-09-25T13:34:11.608Z,26.93
2018-09-25T13:36:46.290Z,27.84
2018-09-25T13:42:43.266Z,28.46
2018-09-25T13:45:19.193Z,27.85
2018-09-25T13:47:54.500Z,29.23
2018-09-25T13:50:29.024Z,28.55
2018-09-25T13:53:04.159Z,28.28
2018-09-25T13:55:39.025Z,28.72
2018-09-25T13:58:13.556Z,26.84
2018-09-25T14:00:48.187Z,27.87
2018-09-25T14:03:23.461Z,25.41
2018-09-25T14:05:58.176Z,23.09
2018-09-25T14:08:33.105Z,21.95
2018-09-25T14:11:08.618Z,20.08
2018-09-25T14:13:43.329Z,18.59
2018-09-25T14:19:04.527Z,17.51
2018-09-25T14:21:39.318Z,17.56
2018-09-25T14:24:15.575Z,19.41
2018-09-25T14:26:50.590Z,20.74
2018-09-25T14:29:27.533Z,19.86
2018-09-25T14:32:02.225Z,19.59
2018-09-25T14:34:36.966Z,17.82
2018-09-25T14:37:11.554Z,19.88
2018-09-25T14:39:46.160Z,21.68
2018-09-25T14:42:23.865Z,22.78
2018-09-25T14:45:00.102Z,22.28
2018-09-25T14:47:36.520Z,21.60
2018-09-25T14:50:12.506Z,21.02
2018-09-25T14:56:54.077Z,19.32
2018-09-25T14:59:37.345Z,18.71
2018-09-25T15:02:12.182Z,17.98
2018-09-25T15:04:48.481Z,18.25
2018-09-25T15:07:23.268Z,17.31
2018-09-25T15:09:58.109Z,17.96
2018-09-25T15:12:49.554Z,17.82
2018-09-25T15:15:25.217Z,17.48
2018-09-25T15:17:59.860Z,16.74
2018-09-25T15:20:34.664Z,19.65
2018-09-25T15:23:09.267Z,21.62
2018-09-25T15:25:44.478Z,23.12
2018-09-25T15:28:19.533Z,21.27
2018-09-25T15:30:54.190Z,20.99
2018-09-25T15:33:28.944Z,21.24
2018-09-25T15:36:03.633Z,22.37
2018-09-25T15:38:44.143Z,23.76
2018-09-25T15:41:19.090Z,25.97
2018-09-25T15:43:53.933Z,27.12
2018-09-25T15:46:28.695Z,29.01
2018-09-25T15:49:03.410Z,29.96
2018-09-25T15:51:38.177Z,31.90
2018-09-25T15:54:12.923Z,31.54
2018-09-25T15:56:47.917Z,32.54
2018-09-25T15:59:22.628Z,32.18
2018-09-25T16:01:57.859Z,32.99
2018-09-25T16:04:32.416Z,32.78
2018-09-25T16:07:07.136Z,34.10
2018-09-25T16:12:21.608Z,34.98
2018-09-25T16:14:56.334Z,35.45
2018-09-25T16:17:31.386Z,35.58
2018-09-25T16:20:06.525Z,36.91
2018-09-25T16:22:46.512Z,37.47
2018-09-25T16:25:21.412Z,37.89
2018-09-25T16:27:56.170Z,36.98
2018-09-25T16:30:30.770Z,36.86
2018-09-25T16:33:05.763Z,38.16
2018-09-25T16:35:40.844Z,39.71
2018-09-25T16:38:15.230Z,38.10
2018-09-25T16:40:52.387Z,38.89
2018-09-25T16:43:27.376Z,39.03
2018-09-25T16:46:02.270Z,39.77
2018-09-25T16:48:36.998Z,39.89
2018-09-25T16:51:11.892Z,41.61
2018-09-25T16:53:47.698Z,41.06
2018-09-25T16:56:23.227Z,41.05
2018-09-25T16:58:58.080Z,41.21
2018-09-25T17:01:38.677Z,40.81
2018-09-25T17:04:13.879Z,42.23
2018-09-25T17:06:48.559Z,42.90
2018-09-25T17:09:24.127Z,42.71
2018-09-25T17:11:58.869Z,42.76
2018-09-25T17:14:33.583Z,43.62
2018-09-25T17:17:08.235Z,43.27
2018-09-25T17:19:42.870Z,43.91
2018-09-25T17:22:17.680Z,45.35
2018-09-25T17:24:54.774Z,44.61
2018-09-25T17:27:29.488Z,46.60
2018-09-25T17:30:04.282Z,46.78
2018-09-25T17:32:41.965Z,46.62
2018-09-25T17:35:16.889Z,47.27
2018-09-25T17:37:53.357Z,47.21
2018-09-25T17:40:35.413Z,45.93
2018-09-25T17:43:10.336Z,46.21
2018-09-25T17:45:45.498Z,47.85
2018-09-25T17:48:21.558Z,48.25
2018-09-25T17:50:59.131Z,48.21
2018-09-25T17:53:34.644Z,48.15
2018-09-25T17:56:09.802Z,47.91
2018-09-25T17:58:50.775Z,49.24
2018-09-25T18:01:28.744Z,49.60
2018-09-25T18:04:14.002Z,49.60
2018-09-25T18:09:35.663Z,50.81
2018-09-25T18:12:11.841Z,50.18
2018-09-25T18:14:46.982Z,49.97
2018-09-25T18:17:22.723Z,48.13
2018-09-25T18:19:58.348Z,49.98
2018-09-25T18:22:34.063Z,48.64
2018-09-25T18:25:10.134Z,49.28
2018-09-25T18:27:46.617Z,48.69
2018-09-25T18:30:21.325Z,49.17
2018-09-25T18:32:56.798Z,49.88
2018-09-25T18:38:11.486Z,49.92
2018-09-25T18:40:47.084Z,49.98
2018-09-25T18:43:21.877Z,48.90
2018-09-25T18:45:57.988Z,50.48
2018-09-25T18:48:32.654Z,50.92
2018-09-25T18:51:08.101Z,50.84
2018-09-25T18:53:42.809Z,51.62
2018-09-25T18:56:17.526Z,52.96
2018-09-25T18:58:52.286Z,52.96
2018-09-25T19:01:29.013Z,53.69
2018-09-25T19:04:03.644Z,52.35
2018-09-25T19:06:38.296Z,51.80
2018-09-25T19:09:15.930Z,52.14
2018-09-25T19:11:52.142Z,52.49
2018-09-25T19:14:26.786Z,53.83
2018-09-25T19:17:01.669Z,55.33
2018-09-25T19:19:36.324Z,55.78
2018-09-25T19:22:11.482Z,57.66
2018-09-25T19:25:10.692Z,58.75
2018-09-25T19:27:46.841Z,59.17
2018-09-25T19:30:23.233Z,59.61
2018-09-25T19:32:58.452Z,59.20
2018-09-25T19:35:33.451Z,59.35
2018-09-25T19:38:08.148Z,59.19
2018-09-25T19:40:43.732Z,59.53
2018-09-25T19:43:19.024Z,60.40
2018-09-25T19:45:56.147Z,60.97
2018-09-25T19:48:31.520Z,61.49
2018-09-25T19:51:06.783Z,61.68
2018-09-25T19:53:41.691Z,61.50
2018-09-25T19:56:16.475Z,62.13
2018-09-25T19:58:51.250Z,62.40
2018-09-25T20:01:27.423Z,62.05
2018-09-25T20:04:02.837Z,61.85
2018-09-25T20:09:17.916Z,64.40
2018-09-25T20:11:52.761Z,64.77
2018-09-25T20:14:42.773Z,65.51
2018-09-25T20:17:17.609Z,64.83
2018-09-25T20:19:53.644Z,64.74
2018-09-25T20:22:28.393Z,66.01
2018-09-25T20:25:02.989Z,66.29
2018-09-25T20:27:40.155Z,66.88
2018-09-25T20:30:16.691Z,66.47
2018-09-25T20:32:51.315Z,66.78
2018-09-25T20:35:25.913Z,66.86
2018-09-25T20:38:00.909Z,67.34
2018-09-25T20:40:36.500Z,67.93
2018-09-25T20:43:11.636Z,67.84
2018-09-25T20:45:46.271Z,68.59
2018-09-25T20:48:21.052Z,69.16
2018-09-25T20:50:56.185Z,68.43
2018-09-25T20:53:31.684Z,69.19
2018-09-25T20:56:07.451Z,70.96
2018-09-25T20:58:42.142Z,69.50
2018-09-25T21:01:17.095Z,71.46
2018-09-25T21:03:52.020Z,72.72
2018-09-25T21:06:28.890Z,72.58
2018-09-25T21:09:03.542Z,71.60
2018-09-25T21:11:38.441Z,73.11
2018-09-25T21:14:13.040Z,73.79
2018-09-25T21:16:48.824Z,72.18
2018-09-25T21:19:23.700Z,72.00
2018-09-25T21:21:58.484Z,71.82
2018-09-25T21:24:37.047Z,72.51
2018-09-25T21:27:12.256Z,72.61
2018-09-25T21:29:47.005Z,72.23
2018-09-25T21:32:21.694Z,72.39
2018-09-25T21:34:58.730Z,72.32
2018-09-25T21:37:33.594Z,72.35
2018-09-25T21:40:08.437Z,72.92
2018-09-25T21:42:43.285Z,72.70
2018-09-25T21:45:18.474Z,73.10
2018-09-25T21:47:53.534Z,72.94
2018-09-25T21:50:28.362Z,73.34
2018-09-25T21:53:03.181Z,73.33
2018-09-25T21:55:38.425Z,73.86
2018-09-25T21:58:13.098Z,74.25
2018-09-25T22:00:47.661Z,74.38
2018-09-25T22:03:22.358Z,74.95
2018-09-25T22:05:57.320Z,75.00
2018-09-25T22:08:32.011Z,75.26
2018-09-25T22:11:06.654Z,75.56
2018-09-25T22:16:23.966Z,75.33
2018-09-25T22:18:58.456Z,74.81
2018-09-25T22:21:34.465Z,75.28
2018-09-25T22:24:09.117Z,75.13
2018-09-25T22:26:43.615Z,75.84
2018-09-25T22:29:18.473Z,76.16
2018-09-25T22:35:15.720Z,77.23
2018-09-25T22:37:50.423Z,77.24
2018-09-25T22:40:25.009Z,77.42
2018-09-25T22:43:01.489Z,77.38
2018-09-25T22:45:36.717Z,77.49
2018-09-25T22:48:12.764Z,77.40
2018-09-25T22:50:47.316Z,77.02
2018-09-25T22:53:25.807Z,78.33
2018-09-25T22:56:00.370Z,79.72
2018-09-25T22:58:35.270Z,77.86
2018-09-25T23:01:11.022Z,78.19
2018-09-25T23:03:45.753Z,78.43
2018-09-25T23:06:20.526Z,78.59
2018-09-25T23:08:55.246Z,78.44
2018-09-25T23:11:30.219Z,79.12
2018-09-25T23:14:04.877Z,78.50
2018-09-25T23:16:39.497Z,78.75
2018-09-25T23:22:02.764Z,79.95
2018-09-25T23:24:37.413Z,80.47
2018-09-25T23:27:12.283Z,80.17
2018-09-25T23:29:47.137Z,81.01
2018-09-25T23:32:21.807Z,80.35
2018-09-25T23:34:56.436Z,79.82
2018-09-25T23:37:32.236Z,79.73
2018-09-25T23:40:07.337Z,79.77
2018-09-25T23:49:34.860Z,81.61
2018-09-25T23:57:36.814Z,80.68
